sensor_id;sensor_type;location;lat;lon;timestamp;temperature;humidity
8832;DHT22;4452;50.756;4.472;2023-08-06T00:00:20;14.90;99.90
8832;DHT22;4452;50.756;4.472;2023-08-06T00:02:46;15.00;99.90
8832;DHT22;4452;50.756;4.472;2023-08-06T00:05:12;15.00;99.90
8832;DHT22;4452;50.756;4.472;2023-08-06T00:07:37;15.00;99.90
8832;DHT22;4452;50.756;4.472;2023-08-06T00:10:04;15.00;99.90
8832;DHT22;4452;50.756;4.472;2023-08-06T00:12:29;15.00;99.90
8832;DHT22;4452;50.756;4.472;2023-08-06T00:14:55;15.00;99.90
8832;DHT22;4452;50.756;4.472;2023-08-06T00:17:24;15.00;99.90
8832;DHT22;4452;50.756;4.472;2023-08-06T00:19:50;15.00;99.90
8832;DHT22;4452;50.756;4.472;2023-08-06T00:22:15;15.10;99.90
8832;DHT22;4452;50.756;4.472;2023-08-06T00:24:41;15.00;99.90
8832;DHT22;4452;50.756;4.472;2023-08-06T00:27:07;15.10;99.90
8832;DHT22;4452;50.756;4.472;2023-08-06T00:29:32;15.10;99.90
8832;DHT22;4452;50.756;4.472;2023-08-06T00:31:58;15.10;99.90
8832;DHT22;4452;50.756;4.472;2023-08-06T00:34:24;15.20;99.90
8832;DHT22;4452;50.756;4.472;2023-08-06T00:36:49;15.20;99.90
8832;DHT22;4452;50.756;4.472;2023-08-06T00:39:15;15.10;99.90
8832;DHT22;4452;50.756;4.472;2023-08-06T00:41:41;15.20;99.90
8832;DHT22;4452;50.756;4.472;2023-08-06T00:44:06;15.20;99.90
8832;DHT22;4452;50.756;4.472;2023-08-06T00:46:32;15.20;99.90
8832;DHT22;4452;50.756;4.472;2023-08-06T00:48:59;15.20;99.90
8832;DHT22;4452;50.756;4.472;2023-08-06T00:51:25;15.20;99.90
8832;DHT22;4452;50.756;4.472;2023-08-06T00:53:52;15.20;99.90
8832;DHT22;4452;50.756;4.472;2023-08-06T00:56:19;15.20;99.90
8832;DHT22;4452;50.756;4.472;2023-08-06T00:58:45;15.30;99.90
8832;DHT22;4452;50.756;4.472;2023-08-06T01:01:12;15.30;99.90
8832;DHT22;4452;50.756;4.472;2023-08-06T01:03:37;15.30;99.90
8832;DHT22;4452;50.756;4.472;2023-08-06T01:06:04;15.30;99.90
8832;DHT22;4452;50.756;4.472;2023-08-06T01:14:18;15.40;99.90
8832;DHT22;4452;50.756;4.472;2023-08-06T01:16:50;15.40;99.90
8832;DHT22;4452;50.756;4.472;2023-08-06T01:19:17;15.40;99.90
8832;DHT22;4452;50.756;4.472;2023-08-06T01:21:43;15.40;99.90
8832;DHT22;4452;50.756;4.472;2023-08-06T01:24:09;15.40;99.90
8832;DHT22;4452;50.756;4.472;2023-08-06T01:26:42;15.40;99.90
8832;DHT22;4452;50.756;4.472;2023-08-06T01:29:22;15.40;99.90
8832;DHT22;4452;50.756;4.472;2023-08-06T01:31:51;15.30;99.90
8832;DHT22;4452;50.756;4.472;2023-08-06T01:34:22;15.30;99.90
8832;DHT22;4452;50.756;4.472;2023-08-06T01:36:48;15.30;99.90
8832;DHT22;4452;50.756;4.472;2023-08-06T01:39:15;15.20;99.90
8832;DHT22;4452;50.756;4.472;2023-08-06T01:41:41;15.30;99.90
8832;DHT22;4452;50.756;4.472;2023-08-06T01:44:06;15.20;99.90
8832;DHT22;4452;50.756;4.472;2023-08-06T01:46:32;15.30;99.90
8832;DHT22;4452;50.756;4.472;2023-08-06T01:48:58;15.30;99.90
8832;DHT22;4452;50.756;4.472;2023-08-06T01:51:23;15.30;99.90
8832;DHT22;4452;50.756;4.472;2023-08-06T01:53:49;15.30;99.90
8832;DHT22;4452;50.756;4.472;2023-08-06T01:56:15;15.20;99.90
8832;DHT22;4452;50.756;4.472;2023-08-06T01:58:40;15.20;99.90
8832;DHT22;4452;50.756;4.472;2023-08-06T02:01:06;15.20;99.90
8832;DHT22;4452;50.756;4.472;2023-08-06T02:03:32;15.20;99.90
8832;DHT22;4452;50.756;4.472;2023-08-06T02:05:57;15.20;99.90
8832;DHT22;4452;50.756;4.472;2023-08-06T02:08:23;15.20;99.90
8832;DHT22;4452;50.756;4.472;2023-08-06T02:10:49;15.20;99.90
8832;DHT22;4452;50.756;4.472;2023-08-06T02:13:14;15.20;99.90
8832;DHT22;4452;50.756;4.472;2023-08-06T02:15:44;15.20;99.90
8832;DHT22;4452;50.756;4.472;2023-08-06T02:18:10;15.10;99.90
8832;DHT22;4452;50.756;4.472;2023-08-06T02:20:36;15.10;99.90
8832;DHT22;4452;50.756;4.472;2023-08-06T02:23:02;15.10;99.90
8832;DHT22;4452;50.756;4.472;2023-08-06T02:25:27;15.00;99.90
8832;DHT22;4452;50.756;4.472;2023-08-06T02:27:53;15.00;99.90
8832;DHT22;4452;50.756;4.472;2023-08-06T02:30:19;15.00;99.90
8832;DHT22;4452;50.756;4.472;2023-08-06T02:32:44;15.00;99.90
8832;DHT22;4452;50.756;4.472;2023-08-06T02:35:10;15.00;99.90
8832;DHT22;4452;50.756;4.472;2023-08-06T02:37:36;15.00;99.90
8832;DHT22;4452;50.756;4.472;2023-08-06T02:40:02;15.00;99.90
8832;DHT22;4452;50.756;4.472;2023-08-06T02:42:28;14.90;99.90
8832;DHT22;4452;50.756;4.472;2023-08-06T02:44:53;14.90;99.90
8832;DHT22;4452;50.756;4.472;2023-08-06T02:47:22;15.00;99.90
8832;DHT22;4452;50.756;4.472;2023-08-06T02:49:47;15.00;99.90
8832;DHT22;4452;50.756;4.472;2023-08-06T02:52:13;15.00;99.90
8832;DHT22;4452;50.756;4.472;2023-08-06T02:54:39;14.90;99.90
8832;DHT22;4452;50.756;4.472;2023-08-06T02:57:05;14.90;99.90
8832;DHT22;4452;50.756;4.472;2023-08-06T02:59:31;14.90;99.90
8832;DHT22;4452;50.756;4.472;2023-08-06T03:01:57;14.90;99.90
8832;DHT22;4452;50.756;4.472;2023-08-06T03:04:23;14.90;99.90
8832;DHT22;4452;50.756;4.472;2023-08-06T03:06:50;14.90;99.90
8832;DHT22;4452;50.756;4.472;2023-08-06T03:09:16;14.90;99.90
8832;DHT22;4452;50.756;4.472;2023-08-06T03:11:42;14.90;99.90
8832;DHT22;4452;50.756;4.472;2023-08-06T03:14:07;14.90;99.90
8832;DHT22;4452;50.756;4.472;2023-08-06T03:16:33;14.90;99.90
8832;DHT22;4452;50.756;4.472;2023-08-06T03:18:59;14.90;99.90
8832;DHT22;4452;50.756;4.472;2023-08-06T03:21:25;14.90;99.90
8832;DHT22;4452;50.756;4.472;2023-08-06T03:23:50;14.90;99.90
8832;DHT22;4452;50.756;4.472;2023-08-06T03:26:16;14.90;99.90
8832;DHT22;4452;50.756;4.472;2023-08-06T03:28:42;14.90;99.90
8832;DHT22;4452;50.756;4.472;2023-08-06T03:31:07;15.00;99.90
8832;DHT22;4452;50.756;4.472;2023-08-06T03:33:33;14.90;99.90
8832;DHT22;4452;50.756;4.472;2023-08-06T03:35:59;14.90;99.90
8832;DHT22;4452;50.756;4.472;2023-08-06T03:38:25;15.00;99.90
8832;DHT22;4452;50.756;4.472;2023-08-06T03:40:51;15.00;99.90
8832;DHT22;4452;50.756;4.472;2023-08-06T03:43:16;15.00;99.90
8832;DHT22;4452;50.756;4.472;2023-08-06T03:45:42;15.10;99.90
8832;DHT22;4452;50.756;4.472;2023-08-06T03:48:08;15.10;99.90
8832;DHT22;4452;50.756;4.472;2023-08-06T03:50:35;15.20;99.90
8832;DHT22;4452;50.756;4.472;2023-08-06T03:53:01;15.20;99.90
8832;DHT22;4452;50.756;4.472;2023-08-06T03:55:27;15.20;99.90
8832;DHT22;4452;50.756;4.472;2023-08-06T03:57:53;15.20;99.90
8832;DHT22;4452;50.756;4.472;2023-08-06T04:00:18;15.30;99.90
8832;DHT22;4452;50.756;4.472;2023-08-06T04:02:44;15.30;99.90
8832;DHT22;4452;50.756;4.472;2023-08-06T04:05:10;15.30;99.90
8832;DHT22;4452;50.756;4.472;2023-08-06T04:07:36;15.30;99.90
8832;DHT22;4452;50.756;4.472;2023-08-06T04:10:03;15.20;99.90
8832;DHT22;4452;50.756;4.472;2023-08-06T04:12:30;15.20;99.90
8832;DHT22;4452;50.756;4.472;2023-08-06T04:14:58;15.10;99.90
8832;DHT22;4452;50.756;4.472;2023-08-06T04:17:27;15.00;99.90
8832;DHT22;4452;50.756;4.472;2023-08-06T04:19:56;15.00;99.90
8832;DHT22;4452;50.756;4.472;2023-08-06T04:22:25;14.90;99.90
8832;DHT22;4452;50.756;4.472;2023-08-06T04:24:51;14.80;99.90
8832;DHT22;4452;50.756;4.472;2023-08-06T04:27:18;14.70;99.90
8832;DHT22;4452;50.756;4.472;2023-08-06T04:29:44;14.60;99.90
8832;DHT22;4452;50.756;4.472;2023-08-06T04:32:10;14.70;99.90
8832;DHT22;4452;50.756;4.472;2023-08-06T04:34:37;14.70;99.90
8832;DHT22;4452;50.756;4.472;2023-08-06T04:37:08;14.70;99.90
8832;DHT22;4452;50.756;4.472;2023-08-06T04:39:34;14.70;99.90
8832;DHT22;4452;50.756;4.472;2023-08-06T04:42:03;14.70;99.90
8832;DHT22;4452;50.756;4.472;2023-08-06T04:44:29;14.70;99.90
8832;DHT22;4452;50.756;4.472;2023-08-06T04:46:55;14.70;99.90
8832;DHT22;4452;50.756;4.472;2023-08-06T04:49:21;14.70;99.90
8832;DHT22;4452;50.756;4.472;2023-08-06T04:51:46;14.70;99.90
8832;DHT22;4452;50.756;4.472;2023-08-06T04:54:12;14.70;99.90
8832;DHT22;4452;50.756;4.472;2023-08-06T04:56:38;14.80;99.90
8832;DHT22;4452;50.756;4.472;2023-08-06T04:59:04;14.70;99.90
8832;DHT22;4452;50.756;4.472;2023-08-06T05:01:29;14.70;99.90
8832;DHT22;4452;50.756;4.472;2023-08-06T05:03:55;14.70;99.90
8832;DHT22;4452;50.756;4.472;2023-08-06T05:06:21;14.70;99.90
8832;DHT22;4452;50.756;4.472;2023-08-06T05:08:46;14.60;99.90
8832;DHT22;4452;50.756;4.472;2023-08-06T05:11:12;14.60;99.90
8832;DHT22;4452;50.756;4.472;2023-08-06T05:13:38;14.50;99.90
8832;DHT22;4452;50.756;4.472;2023-08-06T05:16:04;14.50;99.90
8832;DHT22;4452;50.756;4.472;2023-08-06T05:18:30;14.50;99.90
8832;DHT22;4452;50.756;4.472;2023-08-06T05:20:56;14.50;99.90
8832;DHT22;4452;50.756;4.472;2023-08-06T05:23:21;14.50;99.90
8832;DHT22;4452;50.756;4.472;2023-08-06T05:25:47;14.50;99.90
8832;DHT22;4452;50.756;4.472;2023-08-06T05:28:19;14.50;99.90
8832;DHT22;4452;50.756;4.472;2023-08-06T05:30:45;14.60;99.90
8832;DHT22;4452;50.756;4.472;2023-08-06T05:33:11;14.50;99.90
8832;DHT22;4452;50.756;4.472;2023-08-06T05:35:36;14.50;99.90
8832;DHT22;4452;50.756;4.472;2023-08-06T05:38:05;14.50;99.90
8832;DHT22;4452;50.756;4.472;2023-08-06T05:40:33;14.50;99.90
8832;DHT22;4452;50.756;4.472;2023-08-06T05:43:04;14.50;99.90
8832;DHT22;4452;50.756;4.472;2023-08-06T05:45:30;14.50;99.90
8832;DHT22;4452;50.756;4.472;2023-08-06T05:47:56;14.50;99.90
8832;DHT22;4452;50.756;4.472;2023-08-06T05:50:23;14.50;99.90
8832;DHT22;4452;50.756;4.472;2023-08-06T05:52:50;14.50;99.90
8832;DHT22;4452;50.756;4.472;2023-08-06T05:55:17;14.50;99.90
8832;DHT22;4452;50.756;4.472;2023-08-06T05:57:43;14.50;99.90
8832;DHT22;4452;50.756;4.472;2023-08-06T06:00:09;14.50;99.90
8832;DHT22;4452;50.756;4.472;2023-08-06T06:02:35;14.60;99.90
8832;DHT22;4452;50.756;4.472;2023-08-06T06:05:01;14.60;99.90
8832;DHT22;4452;50.756;4.472;2023-08-06T06:07:27;14.60;99.90
8832;DHT22;4452;50.756;4.472;2023-08-06T06:09:53;14.60;99.90
8832;DHT22;4452;50.756;4.472;2023-08-06T06:12:18;14.60;99.90
8832;DHT22;4452;50.756;4.472;2023-08-06T06:14:44;14.60;99.90
8832;DHT22;4452;50.756;4.472;2023-08-06T06:17:13;14.50;99.90
8832;DHT22;4452;50.756;4.472;2023-08-06T06:19:39;14.60;99.90
8832;DHT22;4452;50.756;4.472;2023-08-06T06:22:06;14.60;99.90
8832;DHT22;4452;50.756;4.472;2023-08-06T06:24:35;14.70;99.90
8832;DHT22;4452;50.756;4.472;2023-08-06T06:27:00;14.60;99.90
8832;DHT22;4452;50.756;4.472;2023-08-06T06:29:26;14.60;99.90
8832;DHT22;4452;50.756;4.472;2023-08-06T06:31:52;14.60;99.90
8832;DHT22;4452;50.756;4.472;2023-08-06T06:34:18;14.60;99.90
8832;DHT22;4452;50.756;4.472;2023-08-06T06:36:47;14.60;99.90
8832;DHT22;4452;50.756;4.472;2023-08-06T06:39:15;14.70;99.90
8832;DHT22;4452;50.756;4.472;2023-08-06T06:41:41;14.60;99.90
8832;DHT22;4452;50.756;4.472;2023-08-06T06:44:33;14.60;99.90
8832;DHT22;4452;50.756;4.472;2023-08-06T06:46:59;14.60;99.90
8832;DHT22;4452;50.756;4.472;2023-08-06T06:49:24;14.60;99.90
8832;DHT22;4452;50.756;4.472;2023-08-06T06:51:51;14.60;99.90
8832;DHT22;4452;50.756;4.472;2023-08-06T06:54:19;14.60;99.90
8832;DHT22;4452;50.756;4.472;2023-08-06T06:56:45;14.60;99.90
8832;DHT22;4452;50.756;4.472;2023-08-06T06:59:11;14.60;99.90
8832;DHT22;4452;50.756;4.472;2023-08-06T07:01:37;14.60;99.90
8832;DHT22;4452;50.756;4.472;2023-08-06T07:04:03;14.60;99.90
8832;DHT22;4452;50.756;4.472;2023-08-06T07:06:33;14.60;99.90
8832;DHT22;4452;50.756;4.472;2023-08-06T07:08:59;14.60;99.90
8832;DHT22;4452;50.756;4.472;2023-08-06T07:11:25;14.60;99.90
8832;DHT22;4452;50.756;4.472;2023-08-06T07:13:56;14.40;99.90
8832;DHT22;4452;50.756;4.472;2023-08-06T07:16:23;14.50;99.90
8832;DHT22;4452;50.756;4.472;2023-08-06T07:18:50;14.40;99.90
8832;DHT22;4452;50.756;4.472;2023-08-06T07:21:16;14.50;99.90
8832;DHT22;4452;50.756;4.472;2023-08-06T07:23:42;14.50;99.90
8832;DHT22;4452;50.756;4.472;2023-08-06T07:26:08;14.50;99.90
8832;DHT22;4452;50.756;4.472;2023-08-06T07:28:34;14.60;99.90
8832;DHT22;4452;50.756;4.472;2023-08-06T07:31:14;14.60;99.90
8832;DHT22;4452;50.756;4.472;2023-08-06T07:33:49;14.60;99.90
8832;DHT22;4452;50.756;4.472;2023-08-06T07:36:18;14.60;99.90
8832;DHT22;4452;50.756;4.472;2023-08-06T07:38:44;14.60;99.90
8832;DHT22;4452;50.756;4.472;2023-08-06T07:41:10;14.60;99.90
8832;DHT22;4452;50.756;4.472;2023-08-06T07:43:36;14.60;99.90
8832;DHT22;4452;50.756;4.472;2023-08-06T07:46:02;14.60;99.90
8832;DHT22;4452;50.756;4.472;2023-08-06T07:48:34;14.80;99.90
8832;DHT22;4452;50.756;4.472;2023-08-06T07:51:02;14.90;99.90
8832;DHT22;4452;50.756;4.472;2023-08-06T07:53:34;14.90;99.90
8832;DHT22;4452;50.756;4.472;2023-08-06T07:55:59;15.10;99.90
8832;DHT22;4452;50.756;4.472;2023-08-06T07:58:27;15.10;99.90
8832;DHT22;4452;50.756;4.472;2023-08-06T08:00:55;15.20;99.90
8832;DHT22;4452;50.756;4.472;2023-08-06T08:03:24;15.20;99.90
8832;DHT22;4452;50.756;4.472;2023-08-06T08:05:54;15.40;99.90
8832;DHT22;4452;50.756;4.472;2023-08-06T08:08:24;15.40;99.90
8832;DHT22;4452;50.756;4.472;2023-08-06T08:10:50;15.30;99.90
8832;DHT22;4452;50.756;4.472;2023-08-06T08:13:16;15.40;99.90
8832;DHT22;4452;50.756;4.472;2023-08-06T08:15:42;15.50;99.90
8832;DHT22;4452;50.756;4.472;2023-08-06T08:18:11;15.60;99.90
8832;DHT22;4452;50.756;4.472;2023-08-06T08:20:36;15.70;99.90
8832;DHT22;4452;50.756;4.472;2023-08-06T08:23:02;15.90;99.90
8832;DHT22;4452;50.756;4.472;2023-08-06T08:25:28;16.00;99.90
8832;DHT22;4452;50.756;4.472;2023-08-06T08:27:55;16.10;99.90
8832;DHT22;4452;50.756;4.472;2023-08-06T08:30:21;16.10;99.90
8832;DHT22;4452;50.756;4.472;2023-08-06T08:32:47;16.10;99.90
8832;DHT22;4452;50.756;4.472;2023-08-06T08:35:14;16.00;99.90
8832;DHT22;4452;50.756;4.472;2023-08-06T08:37:42;15.60;99.90
8832;DHT22;4452;50.756;4.472;2023-08-06T08:40:08;15.50;99.90
8832;DHT22;4452;50.756;4.472;2023-08-06T08:42:35;15.30;99.90
8832;DHT22;4452;50.756;4.472;2023-08-06T08:45:03;15.40;99.90
8832;DHT22;4452;50.756;4.472;2023-08-06T08:47:30;15.30;99.90
8832;DHT22;4452;50.756;4.472;2023-08-06T08:50:00;15.10;99.90
8832;DHT22;4452;50.756;4.472;2023-08-06T08:52:27;15.10;99.90
8832;DHT22;4452;50.756;4.472;2023-08-06T08:54:56;15.20;99.90
8832;DHT22;4452;50.756;4.472;2023-08-06T08:57:22;15.30;99.90
8832;DHT22;4452;50.756;4.472;2023-08-06T08:59:48;15.30;99.90
8832;DHT22;4452;50.756;4.472;2023-08-06T09:02:17;15.40;99.90
8832;DHT22;4452;50.756;4.472;2023-08-06T09:04:44;15.50;99.90
8832;DHT22;4452;50.756;4.472;2023-08-06T09:07:13;15.50;99.90
8832;DHT22;4452;50.756;4.472;2023-08-06T09:09:41;15.30;99.90
8832;DHT22;4452;50.756;4.472;2023-08-06T09:12:14;15.40;99.90
8832;DHT22;4452;50.756;4.472;2023-08-06T09:14:40;15.40;99.90
8832;DHT22;4452;50.756;4.472;2023-08-06T09:17:06;15.60;99.90
8832;DHT22;4452;50.756;4.472;2023-08-06T09:19:33;15.60;99.90
8832;DHT22;4452;50.756;4.472;2023-08-06T09:22:02;15.60;99.90
8832;DHT22;4452;50.756;4.472;2023-08-06T09:24:28;15.40;99.90
8832;DHT22;4452;50.756;4.472;2023-08-06T09:26:53;15.40;99.90
8832;DHT22;4452;50.756;4.472;2023-08-06T09:29:20;15.20;99.90
8832;DHT22;4452;50.756;4.472;2023-08-06T09:32:09;14.90;99.90
8832;DHT22;4452;50.756;4.472;2023-08-06T09:34:56;14.90;99.90
8832;DHT22;4452;50.756;4.472;2023-08-06T09:37:22;15.00;99.90
8832;DHT22;4452;50.756;4.472;2023-08-06T09:42:52;14.80;99.90
8832;DHT22;4452;50.756;4.472;2023-08-06T09:45:19;14.70;99.90
8832;DHT22;4452;50.756;4.472;2023-08-06T09:47:45;14.70;99.90
8832;DHT22;4452;50.756;4.472;2023-08-06T09:50:20;14.70;99.90
8832;DHT22;4452;50.756;4.472;2023-08-06T09:52:47;14.70;99.90
8832;DHT22;4452;50.756;4.472;2023-08-06T09:55:25;14.70;99.90
8832;DHT22;4452;50.756;4.472;2023-08-06T09:57:52;14.60;99.90
8832;DHT22;4452;50.756;4.472;2023-08-06T10:00:37;14.50;99.90
8832;DHT22;4452;50.756;4.472;2023-08-06T10:03:45;14.50;99.90
8832;DHT22;4452;50.756;4.472;2023-08-06T10:06:26;14.50;99.90
8832;DHT22;4452;50.756;4.472;2023-08-06T10:08:52;14.60;99.90
8832;DHT22;4452;50.756;4.472;2023-08-06T10:11:24;14.70;99.90
8832;DHT22;4452;50.756;4.472;2023-08-06T10:14:16;14.80;99.90
8832;DHT22;4452;50.756;4.472;2023-08-06T10:16:47;14.80;99.90
8832;DHT22;4452;50.756;4.472;2023-08-06T10:19:17;14.80;99.90
8832;DHT22;4452;50.756;4.472;2023-08-06T10:22:13;15.00;99.90
8832;DHT22;4452;50.756;4.472;2023-08-06T10:25:02;14.80;99.90
8832;DHT22;4452;50.756;4.472;2023-08-06T10:27:36;14.90;99.90
8832;DHT22;4452;50.756;4.472;2023-08-06T10:30:27;14.90;99.90
8832;DHT22;4452;50.756;4.472;2023-08-06T10:33:13;15.00;99.90
8832;DHT22;4452;50.756;4.472;2023-08-06T10:35:50;15.00;99.90
8832;DHT22;4452;50.756;4.472;2023-08-06T10:38:20;14.90;99.90
8832;DHT22;4452;50.756;4.472;2023-08-06T10:43:33;14.80;99.90
8832;DHT22;4452;50.756;4.472;2023-08-06T10:46:27;14.80;99.90
8832;DHT22;4452;50.756;4.472;2023-08-06T10:48:56;14.80;99.90
8832;DHT22;4452;50.756;4.472;2023-08-06T10:51:26;14.80;99.90
8832;DHT22;4452;50.756;4.472;2023-08-06T10:53:53;14.70;99.90
8832;DHT22;4452;50.756;4.472;2023-08-06T10:56:24;14.70;99.90
8832;DHT22;4452;50.756;4.472;2023-08-06T10:58:57;14.70;99.90
8832;DHT22;4452;50.756;4.472;2023-08-06T11:01:24;14.70;99.90
8832;DHT22;4452;50.756;4.472;2023-08-06T11:03:52;14.80;99.90
8832;DHT22;4452;50.756;4.472;2023-08-06T11:06:25;14.90;99.90
8832;DHT22;4452;50.756;4.472;2023-08-06T11:09:32;15.00;99.90
8832;DHT22;4452;50.756;4.472;2023-08-06T11:12:12;15.10;99.90
8832;DHT22;4452;50.756;4.472;2023-08-06T11:15:58;15.20;99.90
8832;DHT22;4452;50.756;4.472;2023-08-06T11:18:40;15.40;99.90
8832;DHT22;4452;50.756;4.472;2023-08-06T11:21:19;15.50;99.90
8832;DHT22;4452;50.756;4.472;2023-08-06T11:23:45;15.30;99.90
8832;DHT22;4452;50.756;4.472;2023-08-06T11:26:10;15.30;99.90
8832;DHT22;4452;50.756;4.472;2023-08-06T11:28:36;15.20;99.90
8832;DHT22;4452;50.756;4.472;2023-08-06T11:31:02;15.30;99.90
8832;DHT22;4452;50.756;4.472;2023-08-06T11:33:29;15.30;99.90
8832;DHT22;4452;50.756;4.472;2023-08-06T11:35:57;15.40;99.90
8832;DHT22;4452;50.756;4.472;2023-08-06T11:38:30;15.60;99.90
8832;DHT22;4452;50.756;4.472;2023-08-06T11:40:56;15.80;99.90
8832;DHT22;4452;50.756;4.472;2023-08-06T11:43:22;15.70;99.90
8832;DHT22;4452;50.756;4.472;2023-08-06T11:45:51;15.70;99.90
8832;DHT22;4452;50.756;4.472;2023-08-06T11:48:19;15.70;99.90
8832;DHT22;4452;50.756;4.472;2023-08-06T11:51:12;15.70;99.90
8832;DHT22;4452;50.756;4.472;2023-08-06T11:54:03;15.60;99.90
8832;DHT22;4452;50.756;4.472;2023-08-06T11:56:54;15.20;99.90
8832;DHT22;4452;50.756;4.472;2023-08-06T12:00:06;14.90;99.90
8832;DHT22;4452;50.756;4.472;2023-08-06T12:02:39;14.50;99.90
8832;DHT22;4452;50.756;4.472;2023-08-06T12:05:37;14.50;99.90
8832;DHT22;4452;50.756;4.472;2023-08-06T12:08:04;14.60;99.90
8832;DHT22;4452;50.756;4.472;2023-08-06T12:10:55;14.60;99.90
8832;DHT22;4452;50.756;4.472;2023-08-06T12:13:21;14.60;99.90
8832;DHT22;4452;50.756;4.472;2023-08-06T12:15:47;14.70;99.90
8832;DHT22;4452;50.756;4.472;2023-08-06T12:18:15;14.70;99.90
8832;DHT22;4452;50.756;4.472;2023-08-06T12:20:46;14.60;99.90
8832;DHT22;4452;50.756;4.472;2023-08-06T12:23:12;14.70;99.90
8832;DHT22;4452;50.756;4.472;2023-08-06T12:26:06;14.70;99.90
8832;DHT22;4452;50.756;4.472;2023-08-06T12:28:53;14.90;99.90
8832;DHT22;4452;50.756;4.472;2023-08-06T12:31:23;15.10;99.90
8832;DHT22;4452;50.756;4.472;2023-08-06T12:33:49;15.30;99.90
8832;DHT22;4452;50.756;4.472;2023-08-06T12:36:15;15.50;99.90
8832;DHT22;4452;50.756;4.472;2023-08-06T12:38:41;15.50;99.90
8832;DHT22;4452;50.756;4.472;2023-08-06T12:41:07;15.80;99.90
8832;DHT22;4452;50.756;4.472;2023-08-06T12:43:35;15.80;99.90
8832;DHT22;4452;50.756;4.472;2023-08-06T12:46:05;15.60;99.90
8832;DHT22;4452;50.756;4.472;2023-08-06T12:48:30;15.60;99.90
8832;DHT22;4452;50.756;4.472;2023-08-06T12:50:56;15.50;99.90
8832;DHT22;4452;50.756;4.472;2023-08-06T12:53:22;15.10;99.90
8832;DHT22;4452;50.756;4.472;2023-08-06T12:55:51;15.00;99.90
8832;DHT22;4452;50.756;4.472;2023-08-06T12:58:17;14.80;99.90
8832;DHT22;4452;50.756;4.472;2023-08-06T13:00:46;14.90;99.90
8832;DHT22;4452;50.756;4.472;2023-08-06T13:03:12;15.00;99.90
8832;DHT22;4452;50.756;4.472;2023-08-06T13:05:38;15.00;99.90
8832;DHT22;4452;50.756;4.472;2023-08-06T13:08:04;15.00;99.90
8832;DHT22;4452;50.756;4.472;2023-08-06T13:10:29;15.10;99.90
8832;DHT22;4452;50.756;4.472;2023-08-06T13:12:56;15.10;99.90
8832;DHT22;4452;50.756;4.472;2023-08-06T13:15:31;15.10;99.90
8832;DHT22;4452;50.756;4.472;2023-08-06T13:17:57;15.00;99.90
8832;DHT22;4452;50.756;4.472;2023-08-06T13:20:23;15.00;99.90
8832;DHT22;4452;50.756;4.472;2023-08-06T13:22:49;15.00;99.90
8832;DHT22;4452;50.756;4.472;2023-08-06T13:25:44;14.90;99.90
8832;DHT22;4452;50.756;4.472;2023-08-06T13:28:25;14.90;99.90
8832;DHT22;4452;50.756;4.472;2023-08-06T13:30:54;14.80;99.90
8832;DHT22;4452;50.756;4.472;2023-08-06T13:33:20;14.90;99.90
8832;DHT22;4452;50.756;4.472;2023-08-06T13:35:46;14.80;99.90
8832;DHT22;4452;50.756;4.472;2023-08-06T13:38:12;15.00;99.90
8832;DHT22;4452;50.756;4.472;2023-08-06T13:40:38;14.80;99.90
8832;DHT22;4452;50.756;4.472;2023-08-06T13:43:10;14.80;99.90
8832;DHT22;4452;50.756;4.472;2023-08-06T13:45:35;14.80;99.90
8832;DHT22;4452;50.756;4.472;2023-08-06T13:48:03;14.80;99.90
8832;DHT22;4452;50.756;4.472;2023-08-06T13:50:29;14.70;99.90
8832;DHT22;4452;50.756;4.472;2023-08-06T13:52:55;14.60;99.90
8832;DHT22;4452;50.756;4.472;2023-08-06T13:55:21;14.60;99.90
8832;DHT22;4452;50.756;4.472;2023-08-06T13:57:48;14.60;99.90
8832;DHT22;4452;50.756;4.472;2023-08-06T14:00:18;14.60;99.90
8832;DHT22;4452;50.756;4.472;2023-08-06T14:02:44;14.50;99.90
8832;DHT22;4452;50.756;4.472;2023-08-06T14:05:10;14.40;99.90
8832;DHT22;4452;50.756;4.472;2023-08-06T14:07:36;14.30;99.90
8832;DHT22;4452;50.756;4.472;2023-08-06T14:10:07;14.30;99.90
8832;DHT22;4452;50.756;4.472;2023-08-06T14:12:35;14.30;99.90
8832;DHT22;4452;50.756;4.472;2023-08-06T14:15:01;14.30;99.90
8832;DHT22;4452;50.756;4.472;2023-08-06T14:17:28;14.30;99.90
8832;DHT22;4452;50.756;4.472;2023-08-06T14:19:54;14.50;99.90
8832;DHT22;4452;50.756;4.472;2023-08-06T14:22:21;14.50;99.90
8832;DHT22;4452;50.756;4.472;2023-08-06T14:24:47;14.60;99.90
8832;DHT22;4452;50.756;4.472;2023-08-06T14:27:13;14.60;99.90
8832;DHT22;4452;50.756;4.472;2023-08-06T14:29:38;14.50;99.90
8832;DHT22;4452;50.756;4.472;2023-08-06T14:32:05;14.50;99.90
8832;DHT22;4452;50.756;4.472;2023-08-06T14:34:31;14.50;99.90
8832;DHT22;4452;50.756;4.472;2023-08-06T14:37:02;14.70;99.90
8832;DHT22;4452;50.756;4.472;2023-08-06T14:39:28;14.60;99.90
8832;DHT22;4452;50.756;4.472;2023-08-06T14:41:53;14.50;99.90
8832;DHT22;4452;50.756;4.472;2023-08-06T14:44:20;14.50;99.90
8832;DHT22;4452;50.756;4.472;2023-08-06T14:46:46;14.40;99.90
8832;DHT22;4452;50.756;4.472;2023-08-06T14:49:14;14.40;99.90
8832;DHT22;4452;50.756;4.472;2023-08-06T14:51:40;14.40;99.90
8832;DHT22;4452;50.756;4.472;2023-08-06T14:54:14;14.30;99.90
8832;DHT22;4452;50.756;4.472;2023-08-06T14:56:40;14.30;99.90
8832;DHT22;4452;50.756;4.472;2023-08-06T14:59:06;14.40;99.90
8832;DHT22;4452;50.756;4.472;2023-08-06T15:01:32;14.40;99.90
8832;DHT22;4452;50.756;4.472;2023-08-06T15:03:58;14.40;99.90
8832;DHT22;4452;50.756;4.472;2023-08-06T15:06:24;14.50;99.90
8832;DHT22;4452;50.756;4.472;2023-08-06T15:08:50;14.60;99.90
8832;DHT22;4452;50.756;4.472;2023-08-06T15:11:16;14.50;99.90
8832;DHT22;4452;50.756;4.472;2023-08-06T15:13:41;14.70;99.90
8832;DHT22;4452;50.756;4.472;2023-08-06T15:16:24;14.70;99.90
8832;DHT22;4452;50.756;4.472;2023-08-06T15:18:50;14.70;99.90
8832;DHT22;4452;50.756;4.472;2023-08-06T15:21:16;14.70;99.90
8832;DHT22;4452;50.756;4.472;2023-08-06T15:23:42;14.80;99.90
8832;DHT22;4452;50.756;4.472;2023-08-06T15:26:08;14.90;99.90
8832;DHT22;4452;50.756;4.472;2023-08-06T15:28:34;15.00;99.90
8832;DHT22;4452;50.756;4.472;2023-08-06T15:31:01;15.00;99.90
8832;DHT22;4452;50.756;4.472;2023-08-06T15:33:29;15.10;99.90
8832;DHT22;4452;50.756;4.472;2023-08-06T15:35:55;15.20;99.90
8832;DHT22;4452;50.756;4.472;2023-08-06T15:38:21;15.10;99.90
8832;DHT22;4452;50.756;4.472;2023-08-06T15:40:47;15.00;99.90
8832;DHT22;4452;50.756;4.472;2023-08-06T15:43:16;14.80;99.90
8832;DHT22;4452;50.756;4.472;2023-08-06T15:45:41;14.80;99.90
8832;DHT22;4452;50.756;4.472;2023-08-06T15:48:07;15.20;99.90
8832;DHT22;4452;50.756;4.472;2023-08-06T15:50:37;15.70;99.90
8832;DHT22;4452;50.756;4.472;2023-08-06T15:53:03;16.00;99.90
8832;DHT22;4452;50.756;4.472;2023-08-06T15:55:29;16.20;99.90
8832;DHT22;4452;50.756;4.472;2023-08-06T15:57:55;16.20;99.90
8832;DHT22;4452;50.756;4.472;2023-08-06T16:00:20;16.50;99.90
8832;DHT22;4452;50.756;4.472;2023-08-06T16:02:46;17.00;99.90
8832;DHT22;4452;50.756;4.472;2023-08-06T16:05:12;17.30;99.90
8832;DHT22;4452;50.756;4.472;2023-08-06T16:07:38;17.30;99.90
8832;DHT22;4452;50.756;4.472;2023-08-06T16:10:05;17.40;99.90
8832;DHT22;4452;50.756;4.472;2023-08-06T16:12:31;17.40;99.90
8832;DHT22;4452;50.756;4.472;2023-08-06T16:14:56;17.60;99.90
8832;DHT22;4452;50.756;4.472;2023-08-06T16:17:22;17.70;99.90
8832;DHT22;4452;50.756;4.472;2023-08-06T16:19:48;17.60;99.90
8832;DHT22;4452;50.756;4.472;2023-08-06T16:22:14;17.50;99.90